sensor_id;sensor_type;location;lat;lon;timestamp;P1;durP1;ratioP1;P2;durP2;ratioP2
23670;SDS011;12012;51.998;7.614;2022-11-15T00:00:27;20.27;;;13.60;;
23670;SDS011;12012;51.998;7.614;2022-11-15T00:02:53;17.08;;;12.82;;
23670;SDS011;12012;51.998;7.614;2022-11-15T00:05:19;18.92;;;12.55;;
23670;SDS011;12012;51.998;7.614;2022-11-15T00:07:45;17.88;;;12.43;;
23670;SDS011;12012;51.998;7.614;2022-11-15T00:10:11;16.73;;;11.38;;
23670;SDS011;12012;51.998;7.614;2022-11-15T00:12:37;17.65;;;13.05;;
23670;SDS011;12012;51.998;7.614;2022-11-15T00:15:02;15.15;;;10.15;;
23670;SDS011;12012;51.998;7.614;2022-11-15T00:17:28;14.73;;;9.75;;
23670;SDS011;12012;51.998;7.614;2022-11-15T00:19:54;12.93;;;8.65;;
23670;SDS011;12012;51.998;7.614;2022-11-15T00:22:20;16.52;;;11.13;;
23670;SDS011;12012;51.998;7.614;2022-11-15T00:24:46;17.50;;;12.30;;
23670;SDS011;12012;51.998;7.614;2022-11-15T00:27:12;13.48;;;10.13;;
23670;SDS011;12012;51.998;7.614;2022-11-15T00:29:38;16.00;;;11.60;;
23670;SDS011;12012;51.998;7.614;2022-11-15T00:32:08;17.27;;;12.20;;
23670;SDS011;12012;51.998;7.614;2022-11-15T00:34:34;15.45;;;11.80;;
23670;SDS011;12012;51.998;7.614;2022-11-15T00:37:00;17.25;;;11.30;;
23670;SDS011;12012;51.998;7.614;2022-11-15T00:39:26;16.83;;;11.68;;
23670;SDS011;12012;51.998;7.614;2022-11-15T00:41:52;15.40;;;10.80;;
23670;SDS011;12012;51.998;7.614;2022-11-15T00:44:17;15.10;;;10.65;;
23670;SDS011;12012;51.998;7.614;2022-11-15T00:46:43;14.27;;;10.63;;
23670;SDS011;12012;51.998;7.614;2022-11-15T00:49:08;15.45;;;11.00;;
23670;SDS011;12012;51.998;7.614;2022-11-15T00:51:34;13.43;;;8.82;;
23670;SDS011;12012;51.998;7.614;2022-11-15T00:54:00;13.30;;;9.57;;
23670;SDS011;12012;51.998;7.614;2022-11-15T00:56:25;12.98;;;9.93;;
23670;SDS011;12012;51.998;7.614;2022-11-15T00:58:51;11.73;;;8.20;;
23670;SDS011;12012;51.998;7.614;2022-11-15T01:01:17;14.20;;;10.00;;
23670;SDS011;12012;51.998;7.614;2022-11-15T01:03:43;12.00;;;9.15;;
23670;SDS011;12012;51.998;7.614;2022-11-15T01:06:08;13.18;;;9.52;;
23670;SDS011;12012;51.998;7.614;2022-11-15T01:08:35;14.82;;;10.50;;
23670;SDS011;12012;51.998;7.614;2022-11-15T01:11:02;16.30;;;10.27;;
23670;SDS011;12012;51.998;7.614;2022-11-15T01:13:37;15.13;;;11.00;;
23670;SDS011;12012;51.998;7.614;2022-11-15T01:16:07;11.88;;;7.85;;
23670;SDS011;12012;51.998;7.614;2022-11-15T01:18:42;13.73;;;9.27;;
23670;SDS011;12012;51.998;7.614;2022-11-15T01:21:08;13.07;;;9.02;;
23670;SDS011;12012;51.998;7.614;2022-11-15T01:23:36;11.27;;;8.32;;
23670;SDS011;12012;51.998;7.614;2022-11-15T01:26:02;11.45;;;7.97;;
23670;SDS011;12012;51.998;7.614;2022-11-15T01:28:33;12.45;;;9.05;;
23670;SDS011;12012;51.998;7.614;2022-11-15T01:31:01;10.45;;;7.43;;
23670;SDS011;12012;51.998;7.614;2022-11-15T01:33:28;12.32;;;8.45;;
23670;SDS011;12012;51.998;7.614;2022-11-15T01:35:55;12.55;;;8.07;;
23670;SDS011;12012;51.998;7.614;2022-11-15T01:38:21;13.88;;;9.52;;
23670;SDS011;12012;51.998;7.614;2022-11-15T01:40:47;11.40;;;8.90;;
23670;SDS011;12012;51.998;7.614;2022-11-15T01:48:32;9.35;;;7.47;;
23670;SDS011;12012;51.998;7.614;2022-11-15T01:51:04;8.52;;;6.63;;
23670;SDS011;12012;51.998;7.614;2022-11-15T01:53:33;7.88;;;6.75;;
23670;SDS011;12012;51.998;7.614;2022-11-15T01:56:02;8.52;;;6.82;;
23670;SDS011;12012;51.998;7.614;2022-11-15T01:58:30;11.60;;;8.25;;
23670;SDS011;12012;51.998;7.614;2022-11-15T02:00:57;8.60;;;6.70;;
23670;SDS011;12012;51.998;7.614;2022-11-15T02:03:25;10.48;;;7.68;;
23670;SDS011;12012;51.998;7.614;2022-11-15T02:05:55;7.13;;;6.07;;
23670;SDS011;12012;51.998;7.614;2022-11-15T02:08:21;9.23;;;6.75;;
23670;SDS011;12012;51.998;7.614;2022-11-15T02:10:46;8.50;;;5.90;;
23670;SDS011;12012;51.998;7.614;2022-11-15T02:13:13;12.20;;;6.95;;
23670;SDS011;12012;51.998;7.614;2022-11-15T02:15:43;9.98;;;7.32;;
23670;SDS011;12012;51.998;7.614;2022-11-15T02:18:26;7.90;;;6.05;;
23670;SDS011;12012;51.998;7.614;2022-11-15T02:21:03;13.02;;;9.15;;
23670;SDS011;12012;51.998;7.614;2022-11-15T02:26:11;11.32;;;8.35;;
23670;SDS011;12012;51.998;7.614;2022-11-15T02:37:16;8.80;;;5.80;;
23670;SDS011;12012;51.998;7.614;2022-11-15T02:40:11;7.53;;;5.22;;
23670;SDS011;12012;51.998;7.614;2022-11-15T02:42:53;10.38;;;7.43;;
23670;SDS011;12012;51.998;7.614;2022-11-15T02:45:41;9.00;;;5.80;;
23670;SDS011;12012;51.998;7.614;2022-11-15T02:48:13;12.32;;;7.53;;
23670;SDS011;12012;51.998;7.614;2022-11-15T02:50:41;6.75;;;5.85;;
23670;SDS011;12012;51.998;7.614;2022-11-15T02:53:08;9.13;;;6.93;;
23670;SDS011;12012;51.998;7.614;2022-11-15T02:55:38;7.25;;;5.82;;
23670;SDS011;12012;51.998;7.614;2022-11-15T03:01:04;8.50;;;6.43;;
23670;SDS011;12012;51.998;7.614;2022-11-15T03:06:39;10.10;;;7.57;;
23670;SDS011;12012;51.998;7.614;2022-11-15T03:12:05;12.95;;;6.68;;
23670;SDS011;12012;51.998;7.614;2022-11-15T03:14:57;7.28;;;5.32;;
23670;SDS011;12012;51.998;7.614;2022-11-15T03:17:47;6.88;;;5.43;;
23670;SDS011;12012;51.998;7.614;2022-11-15T03:20:19;8.80;;;6.70;;
23670;SDS011;12012;51.998;7.614;2022-11-15T03:22:45;8.07;;;5.85;;
23670;SDS011;12012;51.998;7.614;2022-11-15T03:25:13;11.25;;;7.45;;
23670;SDS011;12012;51.998;7.614;2022-11-15T03:27:46;7.18;;;6.20;;
23670;SDS011;12012;51.998;7.614;2022-11-15T03:30:15;8.07;;;6.63;;
23670;SDS011;12012;51.998;7.614;2022-11-15T03:32:44;9.48;;;6.05;;
23670;SDS011;12012;51.998;7.614;2022-11-15T03:35:19;8.90;;;5.28;;
23670;SDS011;12012;51.998;7.614;2022-11-15T03:38:00;10.75;;;7.57;;
23670;SDS011;12012;51.998;7.614;2022-11-15T03:40:39;10.65;;;7.15;;
23670;SDS011;12012;51.998;7.614;2022-11-15T03:43:12;8.68;;;7.38;;
23670;SDS011;12012;51.998;7.614;2022-11-15T03:46:11;8.25;;;6.43;;
23670;SDS011;12012;51.998;7.614;2022-11-15T03:48:39;12.23;;;8.88;;
23670;SDS011;12012;51.998;7.614;2022-11-15T03:51:07;10.50;;;6.85;;
23670;SDS011;12012;51.998;7.614;2022-11-15T03:53:34;11.13;;;9.00;;
23670;SDS011;12012;51.998;7.614;2022-11-15T03:56:00;12.18;;;8.15;;
23670;SDS011;12012;51.998;7.614;2022-11-15T03:58:25;6.40;;;5.53;;
23670;SDS011;12012;51.998;7.614;2022-11-15T04:00:51;9.07;;;6.35;;
23670;SDS011;12012;51.998;7.614;2022-11-15T04:03:16;8.07;;;6.10;;
23670;SDS011;12012;51.998;7.614;2022-11-15T04:05:42;10.43;;;7.38;;
23670;SDS011;12012;51.998;7.614;2022-11-15T04:08:07;10.82;;;7.30;;
23670;SDS011;12012;51.998;7.614;2022-11-15T04:10:33;6.75;;;5.05;;
23670;SDS011;12012;51.998;7.614;2022-11-15T04:12:58;8.80;;;6.60;;
23670;SDS011;12012;51.998;7.614;2022-11-15T04:15:24;10.63;;;7.65;;
23670;SDS011;12012;51.998;7.614;2022-11-15T04:17:50;7.57;;;5.25;;
23670;SDS011;12012;51.998;7.614;2022-11-15T04:23:13;9.05;;;5.70;;
23670;SDS011;12012;51.998;7.614;2022-11-15T04:26:02;9.25;;;5.95;;
23670;SDS011;12012;51.998;7.614;2022-11-15T04:28:30;6.68;;;5.20;;
23670;SDS011;12012;51.998;7.614;2022-11-15T04:30:56;6.28;;;4.60;;
23670;SDS011;12012;51.998;7.614;2022-11-15T04:33:22;7.82;;;6.38;;
23670;SDS011;12012;51.998;7.614;2022-11-15T04:35:48;7.90;;;5.97;;
23670;SDS011;12012;51.998;7.614;2022-11-15T04:38:40;10.50;;;7.50;;
23670;SDS011;12012;51.998;7.614;2022-11-15T04:41:05;9.48;;;7.20;;
23670;SDS011;12012;51.998;7.614;2022-11-15T04:43:31;8.68;;;6.82;;
23670;SDS011;12012;51.998;7.614;2022-11-15T04:45:57;10.15;;;5.80;;
23670;SDS011;12012;51.998;7.614;2022-11-15T04:48:22;8.52;;;6.70;;
23670;SDS011;12012;51.998;7.614;2022-11-15T04:50:48;9.70;;;6.50;;
23670;SDS011;12012;51.998;7.614;2022-11-15T04:53:14;7.78;;;6.10;;
23670;SDS011;12012;51.998;7.614;2022-11-15T04:55:39;10.00;;;6.93;;
23670;SDS011;12012;51.998;7.614;2022-11-15T04:58:08;8.00;;;5.75;;
23670;SDS011;12012;51.998;7.614;2022-11-15T05:00:34;8.82;;;5.75;;
23670;SDS011;12012;51.998;7.614;2022-11-15T05:03:00;9.90;;;7.22;;
23670;SDS011;12012;51.998;7.614;2022-11-15T05:05:44;7.65;;;5.32;;
23670;SDS011;12012;51.998;7.614;2022-11-15T05:08:10;7.82;;;5.20;;
23670;SDS011;12012;51.998;7.614;2022-11-15T05:10:36;7.15;;;5.57;;
23670;SDS011;12012;51.998;7.614;2022-11-15T05:13:01;8.07;;;6.00;;
23670;SDS011;12012;51.998;7.614;2022-11-15T05:15:27;5.38;;;4.70;;
23670;SDS011;12012;51.998;7.614;2022-11-15T05:17:56;9.45;;;6.57;;
23670;SDS011;12012;51.998;7.614;2022-11-15T05:20:23;7.03;;;5.30;;
23670;SDS011;12012;51.998;7.614;2022-11-15T05:22:48;10.73;;;7.30;;
23670;SDS011;12012;51.998;7.614;2022-11-15T05:25:14;8.57;;;6.80;;
23670;SDS011;12012;51.998;7.614;2022-11-15T05:27:40;12.45;;;8.93;;
23670;SDS011;12012;51.998;7.614;2022-11-15T05:30:05;10.07;;;6.57;;
23670;SDS011;12012;51.998;7.614;2022-11-15T05:32:31;10.57;;;7.40;;
23670;SDS011;12012;51.998;7.614;2022-11-15T05:34:57;8.88;;;6.85;;
23670;SDS011;12012;51.998;7.614;2022-11-15T05:37:23;10.02;;;6.78;;
23670;SDS011;12012;51.998;7.614;2022-11-15T05:39:49;12.60;;;9.05;;
23670;SDS011;12012;51.998;7.614;2022-11-15T05:42:15;11.02;;;8.85;;
23670;SDS011;12012;51.998;7.614;2022-11-15T05:44:43;13.40;;;8.95;;
23670;SDS011;12012;51.998;7.614;2022-11-15T05:47:13;13.02;;;8.35;;
23670;SDS011;12012;51.998;7.614;2022-11-15T05:49:43;11.80;;;9.18;;
23670;SDS011;12012;51.998;7.614;2022-11-15T05:52:11;11.82;;;7.22;;
23670;SDS011;12012;51.998;7.614;2022-11-15T05:54:40;10.18;;;6.88;;
23670;SDS011;12012;51.998;7.614;2022-11-15T05:57:06;11.32;;;7.05;;
23670;SDS011;12012;51.998;7.614;2022-11-15T05:59:32;9.48;;;7.25;;
23670;SDS011;12012;51.998;7.614;2022-11-15T06:01:59;9.65;;;7.63;;
23670;SDS011;12012;51.998;7.614;2022-11-15T06:04:25;14.38;;;7.47;;
23670;SDS011;12012;51.998;7.614;2022-11-15T06:06:51;11.48;;;7.80;;
23670;SDS011;12012;51.998;7.614;2022-11-15T06:09:16;9.50;;;6.43;;
23670;SDS011;12012;51.998;7.614;2022-11-15T06:11:42;8.77;;;6.57;;
23670;SDS011;12012;51.998;7.614;2022-11-15T06:14:07;9.95;;;6.88;;
23670;SDS011;12012;51.998;7.614;2022-11-15T06:16:33;7.97;;;6.45;;
23670;SDS011;12012;51.998;7.614;2022-11-15T06:18:58;7.20;;;5.75;;
23670;SDS011;12012;51.998;7.614;2022-11-15T06:21:24;8.18;;;6.57;;
23670;SDS011;12012;51.998;7.614;2022-11-15T06:23:52;7.47;;;6.47;;
23670;SDS011;12012;51.998;7.614;2022-11-15T06:26:18;11.10;;;7.28;;
23670;SDS011;12012;51.998;7.614;2022-11-15T06:28:43;11.73;;;7.97;;
23670;SDS011;12012;51.998;7.614;2022-11-15T06:31:10;11.70;;;7.32;;
23670;SDS011;12012;51.998;7.614;2022-11-15T06:33:36;10.05;;;7.38;;
23670;SDS011;12012;51.998;7.614;2022-11-15T06:36:04;10.70;;;7.70;;
23670;SDS011;12012;51.998;7.614;2022-11-15T06:38:31;11.02;;;7.53;;
23670;SDS011;12012;51.998;7.614;2022-11-15T06:41:07;11.02;;;8.02;;
23670;SDS011;12012;51.998;7.614;2022-11-15T06:43:34;11.20;;;8.73;;
23670;SDS011;12012;51.998;7.614;2022-11-15T06:46:00;13.93;;;8.80;;
23670;SDS011;12012;51.998;7.614;2022-11-15T06:48:27;14.75;;;9.27;;
23670;SDS011;12012;51.998;7.614;2022-11-15T06:50:54;9.25;;;7.03;;
23670;SDS011;12012;51.998;7.614;2022-11-15T06:53:20;11.60;;;8.68;;
23670;SDS011;12012;51.998;7.614;2022-11-15T06:55:46;11.23;;;7.57;;
23670;SDS011;12012;51.998;7.614;2022-11-15T06:58:11;14.20;;;8.93;;
23670;SDS011;12012;51.998;7.614;2022-11-15T07:00:37;11.85;;;8.20;;
23670;SDS011;12012;51.998;7.614;2022-11-15T07:03:02;8.82;;;7.13;;
23670;SDS011;12012;51.998;7.614;2022-11-15T07:05:28;13.75;;;7.80;;
23670;SDS011;12012;51.998;7.614;2022-11-15T07:07:55;12.85;;;7.82;;
23670;SDS011;12012;51.998;7.614;2022-11-15T07:10:22;12.13;;;8.10;;
23670;SDS011;12012;51.998;7.614;2022-11-15T07:12:50;18.38;;;10.27;;
23670;SDS011;12012;51.998;7.614;2022-11-15T07:15:16;13.00;;;8.00;;
23670;SDS011;12012;51.998;7.614;2022-11-15T07:17:43;14.32;;;8.10;;
23670;SDS011;12012;51.998;7.614;2022-11-15T07:20:09;16.98;;;8.45;;
23670;SDS011;12012;51.998;7.614;2022-11-15T07:22:35;13.20;;;8.13;;
23670;SDS011;12012;51.998;7.614;2022-11-15T07:25:00;11.88;;;7.80;;
23670;SDS011;12012;51.998;7.614;2022-11-15T07:27:26;9.80;;;7.22;;
23670;SDS011;12012;51.998;7.614;2022-11-15T07:29:52;25.52;;;10.43;;
23670;SDS011;12012;51.998;7.614;2022-11-15T07:32:17;20.45;;;9.63;;
23670;SDS011;12012;51.998;7.614;2022-11-15T07:34:43;18.30;;;8.80;;
23670;SDS011;12012;51.998;7.614;2022-11-15T07:37:10;19.98;;;8.50;;
23670;SDS011;12012;51.998;7.614;2022-11-15T07:39:35;12.18;;;7.38;;
23670;SDS011;12012;51.998;7.614;2022-11-15T07:42:01;18.00;;;8.95;;
23670;SDS011;12012;51.998;7.614;2022-11-15T07:44:45;13.32;;;8.57;;
23670;SDS011;12012;51.998;7.614;2022-11-15T07:47:10;11.10;;;8.57;;
23670;SDS011;12012;51.998;7.614;2022-11-15T07:49:36;11.75;;;9.57;;
23670;SDS011;12012;51.998;7.614;2022-11-15T07:52:01;12.15;;;9.13;;
23670;SDS011;12012;51.998;7.614;2022-11-15T07:54:27;13.02;;;8.98;;
23670;SDS011;12012;51.998;7.614;2022-11-15T07:56:52;12.07;;;9.38;;
23670;SDS011;12012;51.998;7.614;2022-11-15T07:59:18;10.07;;;8.25;;
23670;SDS011;12012;51.998;7.614;2022-11-15T08:01:44;10.98;;;7.97;;
23670;SDS011;12012;51.998;7.614;2022-11-15T08:04:10;10.63;;;8.65;;
23670;SDS011;12012;51.998;7.614;2022-11-15T08:06:36;8.15;;;7.30;;
23670;SDS011;12012;51.998;7.614;2022-11-15T08:09:02;10.40;;;7.75;;
23670;SDS011;12012;51.998;7.614;2022-11-15T08:11:28;11.00;;;7.93;;
23670;SDS011;12012;51.998;7.614;2022-11-15T08:13:53;8.93;;;7.88;;
23670;SDS011;12012;51.998;7.614;2022-11-15T08:16:19;10.25;;;7.95;;
23670;SDS011;12012;51.998;7.614;2022-11-15T08:18:44;7.95;;;6.85;;
23670;SDS011;12012;51.998;7.614;2022-11-15T08:21:11;9.63;;;7.43;;
23670;SDS011;12012;51.998;7.614;2022-11-15T08:26:08;8.23;;;6.10;;
23670;SDS011;12012;51.998;7.614;2022-11-15T08:28:34;9.88;;;7.32;;
23670;SDS011;12012;51.998;7.614;2022-11-15T08:30:59;11.25;;;7.28;;
23670;SDS011;12012;51.998;7.614;2022-11-15T08:33:25;11.02;;;7.75;;
23670;SDS011;12012;51.998;7.614;2022-11-15T08:35:52;8.85;;;6.88;;
23670;SDS011;12012;51.998;7.614;2022-11-15T08:38:22;6.60;;;5.93;;
23670;SDS011;12012;51.998;7.614;2022-11-15T08:40:48;8.90;;;6.63;;
23670;SDS011;12012;51.998;7.614;2022-11-15T08:43:15;9.10;;;5.50;;
23670;SDS011;12012;51.998;7.614;2022-11-15T08:45:40;6.05;;;5.30;;
23670;SDS011;12012;51.998;7.614;2022-11-15T08:48:06;7.22;;;5.35;;
23670;SDS011;12012;51.998;7.614;2022-11-15T08:50:31;7.07;;;5.20;;
23670;SDS011;12012;51.998;7.614;2022-11-15T08:52:57;7.40;;;4.80;;
23670;SDS011;12012;51.998;7.614;2022-11-15T08:55:22;8.00;;;4.35;;
23670;SDS011;12012;51.998;7.614;2022-11-15T08:57:48;5.72;;;4.25;;
23670;SDS011;12012;51.998;7.614;2022-11-15T09:00:14;6.18;;;4.13;;
23670;SDS011;12012;51.998;7.614;2022-11-15T09:02:40;7.90;;;4.43;;
23670;SDS011;12012;51.998;7.614;2022-11-15T09:05:06;5.22;;;4.13;;
23670;SDS011;12012;51.998;7.614;2022-11-15T09:07:32;5.50;;;3.75;;
23670;SDS011;12012;51.998;7.614;2022-11-15T09:09:57;5.10;;;3.95;;
23670;SDS011;12012;51.998;7.614;2022-11-15T09:12:23;6.22;;;4.13;;
23670;SDS011;12012;51.998;7.614;2022-11-15T09:14:49;4.57;;;3.25;;
23670;SDS011;12012;51.998;7.614;2022-11-15T09:17:15;6.18;;;3.42;;
23670;SDS011;12012;51.998;7.614;2022-11-15T09:19:40;4.53;;;3.28;;
23670;SDS011;12012;51.998;7.614;2022-11-15T09:22:06;3.13;;;2.83;;
23670;SDS011;12012;51.998;7.614;2022-11-15T09:24:33;5.40;;;3.13;;
23670;SDS011;12012;51.998;7.614;2022-11-15T09:26:59;4.28;;;2.72;;
23670;SDS011;12012;51.998;7.614;2022-11-15T09:29:25;3.42;;;2.80;;
23670;SDS011;12012;51.998;7.614;2022-11-15T09:31:53;6.32;;;3.03;;
23670;SDS011;12012;51.998;7.614;2022-11-15T09:34:18;5.68;;;2.65;;
23670;SDS011;12012;51.998;7.614;2022-11-15T09:36:45;2.92;;;2.40;;
23670;SDS011;12012;51.998;7.614;2022-11-15T09:39:11;2.40;;;2.20;;
23670;SDS011;12012;51.998;7.614;2022-11-15T09:49:20;4.50;;;2.30;;
23670;SDS011;12012;51.998;7.614;2022-11-15T09:51:50;3.53;;;2.10;;
23670;SDS011;12012;51.998;7.614;2022-11-15T09:56:49;4.90;;;2.40;;
23670;SDS011;12012;51.998;7.614;2022-11-15T09:59:36;4.20;;;2.38;;
23670;SDS011;12012;51.998;7.614;2022-11-15T10:04:40;4.63;;;2.42;;
23670;SDS011;12012;51.998;7.614;2022-11-15T10:09:47;5.95;;;2.25;;
23670;SDS011;12012;51.998;7.614;2022-11-15T10:12:47;4.27;;;2.43;;
23670;SDS011;12012;51.998;7.614;2022-11-15T10:15:15;3.95;;;2.25;;
23670;SDS011;12012;51.998;7.614;2022-11-15T10:17:55;2.80;;;2.00;;
23670;SDS011;12012;51.998;7.614;2022-11-15T10:20:27;5.38;;;2.15;;
23670;SDS011;12012;51.998;7.614;2022-11-15T10:23:01;4.25;;;2.40;;
23670;SDS011;12012;51.998;7.614;2022-11-15T10:25:31;3.83;;;2.08;;
23670;SDS011;12012;51.998;7.614;2022-11-15T10:30:48;7.75;;;2.10;;
23670;SDS011;12012;51.998;7.614;2022-11-15T10:33:24;3.25;;;1.80;;
23670;SDS011;12012;51.998;7.614;2022-11-15T10:41:13;2.90;;;1.60;;
23670;SDS011;12012;51.998;7.614;2022-11-15T10:44:02;4.30;;;1.90;;
23670;SDS011;12012;51.998;7.614;2022-11-15T10:46:31;2.75;;;1.85;;
23670;SDS011;12012;51.998;7.614;2022-11-15T10:49:16;3.13;;;1.67;;
23670;SDS011;12012;51.998;7.614;2022-11-15T10:51:47;2.78;;;1.45;;
23670;SDS011;12012;51.998;7.614;2022-11-15T10:54:23;3.22;;;1.55;;
23670;SDS011;12012;51.998;7.614;2022-11-15T10:56:55;3.30;;;1.60;;
23670;SDS011;12012;51.998;7.614;2022-11-15T10:59:26;2.95;;;1.60;;
23670;SDS011;12012;51.998;7.614;2022-11-15T11:01:54;2.00;;;1.60;;
23670;SDS011;12012;51.998;7.614;2022-11-15T11:04:20;2.72;;;1.73;;
23670;SDS011;12012;51.998;7.614;2022-11-15T11:12:00;1.85;;;1.20;;
23670;SDS011;12012;51.998;7.614;2022-11-15T11:14:28;2.17;;;1.20;;
23670;SDS011;12012;51.998;7.614;2022-11-15T11:17:02;1.83;;;1.10;;
23670;SDS011;12012;51.998;7.614;2022-11-15T11:19:39;2.60;;;0.98;;
23670;SDS011;12012;51.998;7.614;2022-11-15T11:31:05;2.22;;;1.42;;
23670;SDS011;12012;51.998;7.614;2022-11-15T11:33:42;1.30;;;1.15;;
23670;SDS011;12012;51.998;7.614;2022-11-15T11:52:14;1.55;;;0.98;;
23670;SDS011;12012;51.998;7.614;2022-11-15T11:57:37;1.60;;;0.88;;
23670;SDS011;12012;51.998;7.614;2022-11-15T12:00:14;2.83;;;0.82;;
23670;SDS011;12012;51.998;7.614;2022-11-15T12:02:47;0.80;;;0.80;;
23670;SDS011;12012;51.998;7.614;2022-11-15T12:05:23;1.05;;;0.90;;
23670;SDS011;12012;51.998;7.614;2022-11-15T12:07:52;3.00;;;1.15;;
23670;SDS011;12012;51.998;7.614;2022-11-15T12:10:25;1.90;;;1.00;;
23670;SDS011;12012;51.998;7.614;2022-11-15T12:13:01;1.75;;;1.00;;
23670;SDS011;12012;51.998;7.614;2022-11-15T12:15:29;1.60;;;1.00;;
23670;SDS011;12012;51.998;7.614;2022-11-15T12:18:00;2.05;;;0.90;;
23670;SDS011;12012;51.998;7.614;2022-11-15T12:20:27;1.35;;;1.00;;
23670;SDS011;12012;51.998;7.614;2022-11-15T12:23:04;1.63;;;1.00;;
23670;SDS011;12012;51.998;7.614;2022-11-15T12:28:15;2.33;;;0.93;;
23670;SDS011;12012;51.998;7.614;2022-11-15T12:30:46;1.08;;;0.60;;
23670;SDS011;12012;51.998;7.614;2022-11-15T12:36:10;1.23;;;0.98;;
23670;SDS011;12012;51.998;7.614;2022-11-15T12:41:20;2.45;;;1.00;;
23670;SDS011;12012;51.998;7.614;2022-11-15T12:43:48;2.83;;;1.13;;
23670;SDS011;12012;51.998;7.614;2022-11-15T12:48:47;2.05;;;0.90;;
23670;SDS011;12012;51.998;7.614;2022-11-15T12:51:15;1.90;;;1.13;;
23670;SDS011;12012;51.998;7.614;2022-11-15T12:53:42;1.63;;;1.00;;
23670;SDS011;12012;51.998;7.614;2022-11-15T12:58:50;0.80;;;0.80;;
23670;SDS011;12012;51.998;7.614;2022-11-15T13:12:00;2.97;;;0.95;;
23670;SDS011;12012;51.998;7.614;2022-11-15T13:19:45;1.50;;;1.00;;
23670;SDS011;12012;51.998;7.614;2022-11-15T13:22:12;5.13;;;1.38;;
23670;SDS011;12012;51.998;7.614;2022-11-15T13:24:58;2.72;;;1.20;;
23670;SDS011;12012;51.998;7.614;2022-11-15T13:27:25;1.48;;;1.00;;
23670;SDS011;12012;51.998;7.614;2022-11-15T13:29:51;2.30;;;1.10;;
23670;SDS011;12012;51.998;7.614;2022-11-15T13:32:17;0.80;;;0.80;;
23670;SDS011;12012;51.998;7.614;2022-11-15T13:34:47;1.30;;;0.95;;
23670;SDS011;12012;51.998;7.614;2022-11-15T13:39:46;3.90;;;1.50;;
23670;SDS011;12012;51.998;7.614;2022-11-15T13:42:16;3.72;;;1.70;;
23670;SDS011;12012;51.998;7.614;2022-11-15T13:47:22;2.53;;;1.40;;
23670;SDS011;12012;51.998;7.614;2022-11-15T13:49:52;2.08;;;1.20;;
23670;SDS011;12012;51.998;7.614;2022-11-15T13:52:17;1.60;;;0.98;;
23670;SDS011;12012;51.998;7.614;2022-11-15T13:54:57;2.17;;;1.08;;
23670;SDS011;12012;51.998;7.614;2022-11-15T13:57:27;1.83;;;1.10;;
23670;SDS011;12012;51.998;7.614;2022-11-15T13:59:59;5.40;;;1.15;;
23670;SDS011;12012;51.998;7.614;2022-11-15T14:02:29;3.22;;;1.10;;
23670;SDS011;12012;51.998;7.614;2022-11-15T14:04:58;2.53;;;1.25;;
23670;SDS011;12012;51.998;7.614;2022-11-15T14:07:30;1.58;;;1.10;;
23670;SDS011;12012;51.998;7.614;2022-11-15T14:09:55;1.63;;;0.98;;
23670;SDS011;12012;51.998;7.614;2022-11-15T14:14:55;3.38;;;0.93;;
23670;SDS011;12012;51.998;7.614;2022-11-15T14:19:56;5.25;;;1.27;;
23670;SDS011;12012;51.998;7.614;2022-11-15T14:27:44;4.38;;;1.50;;
23670;SDS011;12012;51.998;7.614;2022-11-15T14:30:29;3.97;;;0.93;;
23670;SDS011;12012;51.998;7.614;2022-11-15T14:32:54;1.77;;;0.90;;
23670;SDS011;12012;51.998;7.614;2022-11-15T14:35:21;2.13;;;0.98;;
23670;SDS011;12012;51.998;7.614;2022-11-15T14:37:47;2.13;;;1.00;;
23670;SDS011;12012;51.998;7.614;2022-11-15T14:40:17;4.07;;;1.20;;
23670;SDS011;12012;51.998;7.614;2022-11-15T14:42:44;2.88;;;1.02;;
23670;SDS011;12012;51.998;7.614;2022-11-15T14:45:15;3.83;;;1.63;;
23670;SDS011;12012;51.998;7.614;2022-11-15T14:47:46;2.35;;;1.20;;
23670;SDS011;12012;51.998;7.614;2022-11-15T14:50:13;3.38;;;1.60;;
23670;SDS011;12012;51.998;7.614;2022-11-15T14:52:41;3.08;;;1.20;;
23670;SDS011;12012;51.998;7.614;2022-11-15T14:55:18;3.08;;;1.40;;
23670;SDS011;12012;51.998;7.614;2022-11-15T14:57:46;3.67;;;1.95;;
23670;SDS011;12012;51.998;7.614;2022-11-15T15:00:12;8.57;;;3.20;;
23670;SDS011;12012;51.998;7.614;2022-11-15T15:02:39;5.05;;;3.00;;
23670;SDS011;12012;51.998;7.614;2022-11-15T15:05:19;7.25;;;3.08;;
23670;SDS011;12012;51.998;7.614;2022-11-15T15:07:49;5.03;;;2.30;;
23670;SDS011;12012;51.998;7.614;2022-11-15T15:10:17;5.60;;;1.98;;
23670;SDS011;12012;51.998;7.614;2022-11-15T15:12:43;2.83;;;2.10;;
23670;SDS011;12012;51.998;7.614;2022-11-15T15:15:13;3.38;;;2.10;;
23670;SDS011;12012;51.998;7.614;2022-11-15T15:17:40;4.00;;;1.70;;
23670;SDS011;12012;51.998;7.614;2022-11-15T15:20:07;4.28;;;1.25;;
23670;SDS011;12012;51.998;7.614;2022-11-15T15:22:33;6.70;;;1.52;;
23670;SDS011;12012;51.998;7.614;2022-11-15T15:24:58;2.78;;;1.40;;
23670;SDS011;12012;51.998;7.614;2022-11-15T15:27:24;4.70;;;1.27;;
23670;SDS011;12012;51.998;7.614;2022-11-15T15:29:49;2.72;;;1.40;;
23670;SDS011;12012;51.998;7.614;2022-11-15T15:32:15;4.28;;;1.30;;
23670;SDS011;12012;51.998;7.614;2022-11-15T15:34:41;4.22;;;1.48;;
23670;SDS011;12012;51.998;7.614;2022-11-15T15:39:49;2.58;;;1.20;;
23670;SDS011;12012;51.998;7.614;2022-11-15T15:42:19;5.75;;;1.58;;
23670;SDS011;12012;51.998;7.614;2022-11-15T15:44:46;1.77;;;1.15;;
23670;SDS011;12012;51.998;7.614;2022-11-15T15:47:13;2.28;;;0.90;;
23670;SDS011;12012;51.998;7.614;2022-11-15T15:49:44;2.20;;;1.10;;
23670;SDS011;12012;51.998;7.614;2022-11-15T15:52:10;3.17;;;1.42;;
23670;SDS011;12012;51.998;7.614;2022-11-15T15:54:36;2.72;;;1.20;;
23670;SDS011;12012;51.998;7.614;2022-11-15T15:57:02;2.88;;;1.50;;
23670;SDS011;12012;51.998;7.614;2022-11-15T15:59:28;7.97;;;2.70;;
23670;SDS011;12012;51.998;7.614;2022-11-15T16:01:53;6.90;;;2.53;;
23670;SDS011;12012;51.998;7.614;2022-11-15T16:04:19;11.07;;;3.38;;
23670;SDS011;12012;51.998;7.614;2022-11-15T16:06:45;5.10;;;2.20;;
23670;SDS011;12012;51.998;7.614;2022-11-15T16:09:12;6.07;;;2.83;;
23670;SDS011;12012;51.998;7.614;2022-11-15T16:11:39;5.60;;;2.90;;
23670;SDS011;12012;51.998;7.614;2022-11-15T16:14:06;4.03;;;2.35;;
23670;SDS011;12012;51.998;7.614;2022-11-15T16:16:32;5.72;;;2.40;;
23670;SDS011;12012;51.998;7.614;2022-11-15T16:18:59;3.90;;;2.53;;
23670;SDS011;12012;51.998;7.614;2022-11-15T16:21:25;4.05;;;2.45;;
23670;SDS011;12012;51.998;7.614;2022-11-15T16:23:51;5.03;;;2.20;;
23670;SDS011;12012;51.998;7.614;2022-11-15T16:26:21;4.13;;;2.20;;
23670;SDS011;12012;51.998;7.614;2022-11-15T16:28:48;3.78;;;2.08;;
23670;SDS011;12012;51.998;7.614;2022-11-15T16:31:13;2.78;;;1.83;;
23670;SDS011;12012;51.998;7.614;2022-11-15T16:33:39;5.15;;;2.30;;
23670;SDS011;12012;51.998;7.614;2022-11-15T16:36:06;5.45;;;2.10;;
23670;SDS011;12012;51.998;7.614;2022-11-15T16:38:40;3.25;;;2.25;;
23670;SDS011;12012;51.998;7.614;2022-11-15T16:41:05;3.80;;;1.95;;
23670;SDS011;12012;51.998;7.614;2022-11-15T16:43:31;4.10;;;2.00;;
23670;SDS011;12012;51.998;7.614;2022-11-15T16:45:56;2.00;;;1.60;;
23670;SDS011;12012;51.998;7.614;2022-11-15T16:48:23;3.10;;;1.80;;
23670;SDS011;12012;51.998;7.614;2022-11-15T16:50:50;3.25;;;1.83;;
23670;SDS011;12012;51.998;7.614;2022-11-15T16:53:20;3.42;;;1.92;;
23670;SDS011;12012;51.998;7.614;2022-11-15T16:55:45;3.00;;;2.00;;
23670;SDS011;12012;51.998;7.614;2022-11-15T16:58:11;3.20;;;2.08;;
23670;SDS011;12012;51.998;7.614;2022-11-15T17:00:36;3.75;;;2.20;;
23670;SDS011;12012;51.998;7.614;2022-11-15T17:03:02;2.58;;;1.98;;
23670;SDS011;12012;51.998;7.614;2022-11-15T17:05:28;2.60;;;1.80;;